createdAt,value
2023-02-16T00:03:58.043Z,18.35
2023-02-16T00:08:59.734Z,17.75
2023-02-16T00:14:01.783Z,17.95
2023-02-16T00:19:17.446Z,19.25
2023-02-16T00:24:19.084Z,18.65
2023-02-16T00:29:34.136Z,18.38
2023-02-16T00:34:38.529Z,18.83
2023-02-16T00:39:42.265Z,17.50
2023-02-16T00:44:46.807Z,20.95
2023-02-16T00:49:50.618Z,18.48
2023-02-16T00:54:52.192Z,17.60
2023-02-16T01:00:16.751Z,19.23
2023-02-16T01:05:19.181Z,19.50
2023-02-16T01:10:20.845Z,19.15
2023-02-16T01:15:25.864Z,18.80
2023-02-16T01:20:28.326Z,18.48
2023-02-16T01:25:30.022Z,17.40
2023-02-16T01:30:31.776Z,18.08
2023-02-16T01:35:34.305Z,19.38
2023-02-16T01:40:42.699Z,19.73
2023-02-16T01:45:51.033Z,19.60
2023-02-16T01:51:26.518Z,19.95
2023-02-16T01:56:36.663Z,18.17
2023-02-16T02:02:11.810Z,18.98
2023-02-16T02:07:28.863Z,19.05
2023-02-16T02:12:58.216Z,18.08
2023-02-16T02:18:01.334Z,17.98
2023-02-16T02:23:09.020Z,19.13
2023-02-16T02:28:28.418Z,20.40
2023-02-16T02:33:47.799Z,18.70
2023-02-16T02:39:16.135Z,21.85
2023-02-16T02:44:25.035Z,19.63
2023-02-16T02:49:26.644Z,21.67
2023-02-16T02:54:32.181Z,19.77
2023-02-16T02:59:41.017Z,21.05
2023-02-16T03:04:46.650Z,20.23
2023-02-16T03:09:50.587Z,21.40
2023-02-16T03:14:56.151Z,22.38
2023-02-16T03:19:59.506Z,20.10
2023-02-16T03:25:01.028Z,21.50
2023-02-16T03:30:05.706Z,19.85
2023-02-16T03:35:07.893Z,22.00
2023-02-16T03:40:13.243Z,22.08
2023-02-16T03:45:14.834Z,19.23
2023-02-16T03:50:16.986Z,22.63
2023-02-16T03:55:18.872Z,21.33
2023-02-16T04:00:20.646Z,21.02
2023-02-16T04:05:25.874Z,22.45
2023-02-16T04:10:27.703Z,23.05
2023-02-16T04:15:30.879Z,22.38
2023-02-16T04:20:33.679Z,22.35
2023-02-16T04:25:35.387Z,22.63
2023-02-16T04:30:37.055Z,25.02
2023-02-16T04:35:38.637Z,22.45
2023-02-16T04:40:40.204Z,20.67
2023-02-16T04:45:41.792Z,20.92
2023-02-16T04:50:43.316Z,20.42
2023-02-16T04:55:49.186Z,21.23
2023-02-16T05:00:50.784Z,20.47
2023-02-16T05:05:52.302Z,21.92
2023-02-16T05:10:53.804Z,22.77
2023-02-16T05:15:56.490Z,21.45
2023-02-16T05:20:58.084Z,21.17
2023-02-16T05:25:59.595Z,21.73
2023-02-16T05:31:01.085Z,20.08
2023-02-16T05:36:02.714Z,19.33
2023-02-16T05:41:04.911Z,22.45
2023-02-16T05:46:08.684Z,22.23
2023-02-16T05:51:10.294Z,23.45
2023-02-16T05:56:12.044Z,20.98
2023-02-16T06:01:14.527Z,22.48
2023-02-16T06:06:16.495Z,21.65
2023-02-16T06:11:17.986Z,21.55
2023-02-16T06:16:19.671Z,20.77
2023-02-16T06:21:22.213Z,20.40
2023-02-16T06:26:23.732Z,20.25
2023-02-16T06:31:26.281Z,20.27
2023-02-16T06:36:28.061Z,22.27
2023-02-16T06:41:29.676Z,20.92
2023-02-16T06:46:31.698Z,22.35
2023-02-16T06:51:33.647Z,20.35
2023-02-16T06:56:37.662Z,21.75
2023-02-16T07:01:39.454Z,20.73
2023-02-16T07:06:41.203Z,21.73
2023-02-16T07:11:42.866Z,21.88
2023-02-16T07:16:44.504Z,20.73
2023-02-16T07:21:46.066Z,20.33
2023-02-16T07:26:47.737Z,20.77
2023-02-16T07:31:49.488Z,18.95
2023-02-16T07:36:51.226Z,19.67
2023-02-16T07:41:52.806Z,19.40
2023-02-16T07:46:54.491Z,17.90
2023-02-16T07:51:56.020Z,17.15
2023-02-16T07:56:57.579Z,17.15
2023-02-16T08:02:00.536Z,18.27
2023-02-16T08:07:02.281Z,18.08
2023-02-16T08:12:03.900Z,18.13
2023-02-16T08:17:07.614Z,16.98
2023-02-16T08:22:09.334Z,17.38
2023-02-16T08:27:11.418Z,18.95
2023-02-16T08:32:13.719Z,17.40
2023-02-16T08:37:15.264Z,17.38
2023-02-16T08:42:16.902Z,18.30
2023-02-16T08:47:18.837Z,18.20
2023-02-16T08:52:20.402Z,16.95
2023-02-16T08:57:22.049Z,17.15
2023-02-16T09:02:23.763Z,17.30
2023-02-16T09:07:25.433Z,17.08
2023-02-16T09:12:27.007Z,17.52
2023-02-16T09:17:28.978Z,16.48
2023-02-16T09:22:30.507Z,16.35
2023-02-16T09:27:32.053Z,15.88
2023-02-16T09:32:33.614Z,17.33
2023-02-16T09:37:35.278Z,17.38
2023-02-16T09:43:00.311Z,16.48
2023-02-16T09:48:02.136Z,16.25
2023-02-16T09:53:19.439Z,16.85
2023-02-16T09:58:25.771Z,14.82
2023-02-16T10:03:27.452Z,15.48
2023-02-16T10:08:34.295Z,14.98
2023-02-16T10:13:35.745Z,15.25
2023-02-16T10:18:40.123Z,14.70
2023-02-16T10:23:56.658Z,15.85
2023-02-16T10:29:03.212Z,16.17
2023-02-16T10:34:27.780Z,16.10
2023-02-16T10:39:32.189Z,16.77
2023-02-16T10:44:39.152Z,16.30
2023-02-16T10:49:40.972Z,17.77
2023-02-16T10:54:42.601Z,15.85
2023-02-16T10:59:46.367Z,14.90
2023-02-16T11:04:50.498Z,15.75
2023-02-16T11:09:54.227Z,15.55
2023-02-16T11:15:22.216Z,15.82
2023-02-16T11:20:50.553Z,14.77
2023-02-16T11:26:10.311Z,16.05
2023-02-16T11:31:30.641Z,15.15
2023-02-16T11:36:36.986Z,15.10
2023-02-16T11:42:03.445Z,15.73
2023-02-16T11:47:27.955Z,15.23
2023-02-16T11:52:30.532Z,14.88
2023-02-16T11:57:35.919Z,16.15
2023-02-16T12:03:03.931Z,15.18
2023-02-16T12:08:24.679Z,14.70
2023-02-16T12:13:49.633Z,15.85
2023-02-16T12:19:28.340Z,16.05
2023-02-16T12:24:47.004Z,16.33
2023-02-16T12:30:12.924Z,16.45
2023-02-16T12:35:42.748Z,15.23
2023-02-16T12:41:10.177Z,16.52
2023-02-16T12:46:23.850Z,17.23
2023-02-16T12:51:32.555Z,15.98
2023-02-16T12:56:47.926Z,17.17
2023-02-16T13:01:55.230Z,15.93
2023-02-16T13:07:05.146Z,15.15
2023-02-16T13:12:25.487Z,15.65
2023-02-16T13:17:49.931Z,14.65
2023-02-16T13:23:03.332Z,13.40
2023-02-16T13:28:42.111Z,13.70
2023-02-16T13:33:50.119Z,13.63
2023-02-16T13:39:36.296Z,12.93
2023-02-16T13:44:55.482Z,15.38
2023-02-16T13:50:02.849Z,14.93
2023-02-16T13:55:08.562Z,15.88
2023-02-16T14:00:30.978Z,15.15
2023-02-16T14:05:35.532Z,14.98
2023-02-16T14:10:52.061Z,14.25
2023-02-16T14:15:56.556Z,15.32
2023-02-16T14:21:07.025Z,14.77
2023-02-16T14:26:10.136Z,14.07
2023-02-16T14:31:16.784Z,15.15
2023-02-16T14:41:33.868Z,15.30
2023-02-16T14:46:59.992Z,15.45
2023-02-16T14:52:19.848Z,15.13
2023-02-16T14:57:52.928Z,14.35
2023-02-16T15:03:17.588Z,13.82
2023-02-16T15:08:22.106Z,12.35
2023-02-16T15:13:28.772Z,13.43
2023-02-16T15:18:39.760Z,13.18
2023-02-16T15:23:48.977Z,14.15
2023-02-16T15:28:53.765Z,14.15
2023-02-16T15:33:58.263Z,13.98
2023-02-16T15:39:03.019Z,13.77
2023-02-16T15:44:07.029Z,12.88
2023-02-16T15:49:21.656Z,14.27
2023-02-16T15:54:32.014Z,12.13
2023-02-16T15:59:35.380Z,13.02
2023-02-16T16:04:40.773Z,11.85
2023-02-16T16:09:43.601Z,14.65
2023-02-16T16:14:57.290Z,12.15
2023-02-16T16:20:24.331Z,11.90
2023-02-16T16:25:39.760Z,13.25
2023-02-16T16:30:41.468Z,11.00
2023-02-16T16:35:46.107Z,11.85
2023-02-16T16:40:53.447Z,8.77
2023-02-16T16:46:25.677Z,10.15
2023-02-16T16:51:36.407Z,8.40
2023-02-16T16:56:40.417Z,8.20
2023-02-16T17:01:41.998Z,6.85
2023-02-16T17:06:43.639Z,8.43
2023-02-16T17:11:45.206Z,7.10
2023-02-16T17:16:49.379Z,8.50
2023-02-16T17:21:50.921Z,7.43
2023-02-16T17:26:52.774Z,8.98
2023-02-16T17:31:54.361Z,11.48
2023-02-16T17:37:00.973Z,12.27
2023-02-16T17:42:02.688Z,9.40
2023-02-16T17:47:04.328Z,9.35
2023-02-16T17:52:10.894Z,9.20
2023-02-16T17:57:13.011Z,9.50
2023-02-16T18:02:14.599Z,9.38
2023-02-16T18:07:18.038Z,9.85
2023-02-16T18:12:19.540Z,9.52
2023-02-16T18:17:21.153Z,10.70
2023-02-16T18:22:22.850Z,10.95
2023-02-16T18:27:24.390Z,10.65
2023-02-16T18:32:26.016Z,11.05
2023-02-16T18:37:27.607Z,10.15
2023-02-16T18:42:29.221Z,9.90
2023-02-16T18:47:30.877Z,10.68
2023-02-16T18:52:32.777Z,11.10
2023-02-16T18:57:34.481Z,11.45
2023-02-16T19:02:36.195Z,9.93
2023-02-16T19:07:37.951Z,10.30
2023-02-16T19:12:40.204Z,9.48
2023-02-16T19:17:42.127Z,9.10
2023-02-16T19:22:48.438Z,10.38
2023-02-16T19:27:50.059Z,8.15
2023-02-16T19:32:51.885Z,8.88
2023-02-16T19:37:53.514Z,7.60
2023-02-16T19:42:55.097Z,8.30
2023-02-16T19:47:56.683Z,8.82
2023-02-16T19:52:58.229Z,8.60
2023-02-16T19:57:59.891Z,7.88
2023-02-16T20:03:01.562Z,7.90
2023-02-16T20:08:03.237Z,7.50
2023-02-16T20:13:04.775Z,7.05
2023-02-16T20:18:06.347Z,6.30
2023-02-16T20:23:07.913Z,6.90
2023-02-16T20:28:09.505Z,7.10
2023-02-16T20:33:11.152Z,7.07
2023-02-16T20:38:13.896Z,7.45
2023-02-16T20:43:15.412Z,6.82
2023-02-16T20:48:17.066Z,6.90
2023-02-16T20:53:18.774Z,7.53
2023-02-16T20:58:20.290Z,7.22
2023-02-16T21:03:21.858Z,9.13
2023-02-16T21:08:27.029Z,8.70
2023-02-16T21:13:28.702Z,8.80
2023-02-16T21:18:30.507Z,8.55
2023-02-16T21:23:32.198Z,8.82
2023-02-16T21:28:33.795Z,9.20
2023-02-16T21:33:36.320Z,9.73
2023-02-16T21:38:39.622Z,10.27
2023-02-16T21:43:41.278Z,9.55
2023-02-16T21:48:42.824Z,9.15
2023-02-16T21:53:45.270Z,10.77
2023-02-16T21:58:47.008Z,10.93
2023-02-16T22:03:48.634Z,10.27
2023-02-16T22:08:50.188Z,11.32
2023-02-16T22:13:56.741Z,9.60
2023-02-16T22:19:07.658Z,10.20
2023-02-16T22:24:12.531Z,9.45
2023-02-16T22:29:14.257Z,10.70
2023-02-16T22:34:20.582Z,10.85
2023-02-16T22:39:22.252Z,10.35
2023-02-16T22:44:24.192Z,10.25
2023-02-16T22:49:27.355Z,9.23
2023-02-16T22:54:28.980Z,9.20
2023-02-16T22:59:30.654Z,8.95
2023-02-16T23:04:32.233Z,8.30
2023-02-16T23:09:33.806Z,8.15
2023-02-16T23:14:38.424Z,8.32
2023-02-16T23:19:40.113Z,7.93
2023-02-16T23:24:41.685Z,9.10
2023-02-16T23:29:43.276Z,8.20
2023-02-16T23:34:45.887Z,8.15
2023-02-16T23:39:47.384Z,8.38
2023-02-16T23:44:48.919Z,7.45
2023-02-16T23:49:50.506Z,7.90
2023-02-16T23:54:52.050Z,8.15
2023-02-16T23:59:53.659Z,7.40
